sensor_id;sensor_type;location;lat;lon;timestamp;P1;durP1;ratioP1;P2;durP2;ratioP2
62654;SDS011;48717;55.556;37.816;2022-08-19T00:01:56;13.15;;;6.22;;
62654;SDS011;48717;55.556;37.816;2022-08-19T00:04:26;9.40;;;5.10;;
62654;SDS011;48717;55.556;37.816;2022-08-19T00:06:56;8.10;;;5.30;;
62654;SDS011;48717;55.556;37.816;2022-08-19T00:09:24;10.30;;;5.10;;
62654;SDS011;48717;55.556;37.816;2022-08-19T00:11:52;10.20;;;5.93;;
62654;SDS011;48717;55.556;37.816;2022-08-19T00:14:22;8.95;;;5.55;;
62654;SDS011;48717;55.556;37.816;2022-08-19T00:16:52;9.60;;;5.43;;
62654;SDS011;48717;55.556;37.816;2022-08-19T00:19:21;8.95;;;5.25;;
62654;SDS011;48717;55.556;37.816;2022-08-19T00:21:49;8.48;;;5.05;;
62654;SDS011;48717;55.556;37.816;2022-08-19T00:24:17;7.85;;;5.28;;
62654;SDS011;48717;55.556;37.816;2022-08-19T00:26:45;10.50;;;5.47;;
62654;SDS011;48717;55.556;37.816;2022-08-19T00:29:14;12.35;;;5.07;;
62654;SDS011;48717;55.556;37.816;2022-08-19T00:31:43;16.48;;;5.18;;
62654;SDS011;48717;55.556;37.816;2022-08-19T00:34:12;8.68;;;5.18;;
62654;SDS011;48717;55.556;37.816;2022-08-19T00:36:41;11.15;;;5.18;;
62654;SDS011;48717;55.556;37.816;2022-08-19T00:39:09;8.57;;;5.10;;
62654;SDS011;48717;55.556;37.816;2022-08-19T00:41:37;7.45;;;5.20;;
62654;SDS011;48717;55.556;37.816;2022-08-19T00:44:09;8.40;;;5.65;;
62654;SDS011;48717;55.556;37.816;2022-08-19T00:46:40;8.57;;;5.70;;
62654;SDS011;48717;55.556;37.816;2022-08-19T00:51:41;10.38;;;6.03;;
62654;SDS011;48717;55.556;37.816;2022-08-19T00:54:14;11.60;;;7.28;;
62654;SDS011;48717;55.556;37.816;2022-08-19T00:56:42;10.70;;;7.13;;
62654;SDS011;48717;55.556;37.816;2022-08-19T00:59:10;17.52;;;7.63;;
62654;SDS011;48717;55.556;37.816;2022-08-19T01:01:38;12.65;;;7.30;;
62654;SDS011;48717;55.556;37.816;2022-08-19T01:06:38;11.50;;;7.20;;
62654;SDS011;48717;55.556;37.816;2022-08-19T01:09:10;12.77;;;7.55;;
62654;SDS011;48717;55.556;37.816;2022-08-19T01:11:38;14.35;;;7.10;;
62654;SDS011;48717;55.556;37.816;2022-08-19T01:14:09;10.82;;;6.75;;
62654;SDS011;48717;55.556;37.816;2022-08-19T01:16:37;14.88;;;7.45;;
62654;SDS011;48717;55.556;37.816;2022-08-19T01:19:12;9.82;;;7.13;;
62654;SDS011;48717;55.556;37.816;2022-08-19T01:21:55;7.72;;;6.60;;
62654;SDS011;48717;55.556;37.816;2022-08-19T01:24:40;12.30;;;6.97;;
62654;SDS011;48717;55.556;37.816;2022-08-19T01:27:16;8.68;;;6.65;;
62654;SDS011;48717;55.556;37.816;2022-08-19T01:29:43;19.92;;;6.82;;
62654;SDS011;48717;55.556;37.816;2022-08-19T01:32:12;11.02;;;6.28;;
62654;SDS011;48717;55.556;37.816;2022-08-19T01:35:00;9.80;;;6.72;;
62654;SDS011;48717;55.556;37.816;2022-08-19T01:37:29;12.38;;;6.50;;
62654;SDS011;48717;55.556;37.816;2022-08-19T01:40:07;10.77;;;6.20;;
62654;SDS011;48717;55.556;37.816;2022-08-19T01:42:35;9.32;;;5.57;;
62654;SDS011;48717;55.556;37.816;2022-08-19T01:45:04;15.35;;;6.25;;
62654;SDS011;48717;55.556;37.816;2022-08-19T01:47:34;12.80;;;5.53;;
62654;SDS011;48717;55.556;37.816;2022-08-19T01:52:30;9.88;;;5.38;;
62654;SDS011;48717;55.556;37.816;2022-08-19T01:54:57;10.13;;;5.43;;
62654;SDS011;48717;55.556;37.816;2022-08-19T01:57:24;10.10;;;5.47;;
62654;SDS011;48717;55.556;37.816;2022-08-19T01:59:52;8.85;;;5.32;;
62654;SDS011;48717;55.556;37.816;2022-08-19T02:02:20;9.32;;;5.50;;
62654;SDS011;48717;55.556;37.816;2022-08-19T02:04:47;7.65;;;5.13;;
62654;SDS011;48717;55.556;37.816;2022-08-19T02:07:14;7.30;;;5.32;;
62654;SDS011;48717;55.556;37.816;2022-08-19T02:09:42;10.88;;;5.07;;
62654;SDS011;48717;55.556;37.816;2022-08-19T02:12:09;11.23;;;4.63;;
62654;SDS011;48717;55.556;37.816;2022-08-19T02:14:36;10.88;;;4.72;;
62654;SDS011;48717;55.556;37.816;2022-08-19T02:17:03;7.97;;;4.70;;
62654;SDS011;48717;55.556;37.816;2022-08-19T02:19:30;11.80;;;4.78;;
62654;SDS011;48717;55.556;37.816;2022-08-19T02:21:59;8.68;;;4.50;;
62654;SDS011;48717;55.556;37.816;2022-08-19T02:24:26;10.60;;;4.70;;
62654;SDS011;48717;55.556;37.816;2022-08-19T02:26:54;5.57;;;4.18;;
62654;SDS011;48717;55.556;37.816;2022-08-19T02:29:21;16.42;;;6.80;;
62654;SDS011;48717;55.556;37.816;2022-08-19T02:31:48;11.80;;;5.78;;
62654;SDS011;48717;55.556;37.816;2022-08-19T02:34:16;7.78;;;4.30;;
62654;SDS011;48717;55.556;37.816;2022-08-19T02:36:43;13.10;;;5.50;;
62654;SDS011;48717;55.556;37.816;2022-08-19T02:39:17;10.13;;;4.50;;
62654;SDS011;48717;55.556;37.816;2022-08-19T02:41:45;9.10;;;4.40;;
62654;SDS011;48717;55.556;37.816;2022-08-19T02:44:12;11.52;;;5.38;;
62654;SDS011;48717;55.556;37.816;2022-08-19T02:46:57;8.25;;;4.70;;
62654;SDS011;48717;55.556;37.816;2022-08-19T02:49:24;10.77;;;4.97;;
62654;SDS011;48717;55.556;37.816;2022-08-19T02:51:51;9.57;;;4.57;;
62654;SDS011;48717;55.556;37.816;2022-08-19T02:54:18;6.32;;;4.22;;
62654;SDS011;48717;55.556;37.816;2022-08-19T02:56:45;10.18;;;5.55;;
62654;SDS011;48717;55.556;37.816;2022-08-19T02:59:13;11.48;;;4.50;;
62654;SDS011;48717;55.556;37.816;2022-08-19T03:01:40;10.45;;;4.10;;
62654;SDS011;48717;55.556;37.816;2022-08-19T03:04:11;13.32;;;4.60;;
62654;SDS011;48717;55.556;37.816;2022-08-19T03:06:40;8.65;;;3.63;;
62654;SDS011;48717;55.556;37.816;2022-08-19T03:09:08;7.75;;;4.15;;
62654;SDS011;48717;55.556;37.816;2022-08-19T03:11:36;10.45;;;3.95;;
62654;SDS011;48717;55.556;37.816;2022-08-19T03:14:04;9.98;;;4.53;;
62654;SDS011;48717;55.556;37.816;2022-08-19T03:16:35;9.43;;;3.72;;
62654;SDS011;48717;55.556;37.816;2022-08-19T03:19:13;7.85;;;3.90;;
62654;SDS011;48717;55.556;37.816;2022-08-19T03:24:13;7.70;;;3.85;;
62654;SDS011;48717;55.556;37.816;2022-08-19T03:26:42;5.40;;;3.20;;
62654;SDS011;48717;55.556;37.816;2022-08-19T03:29:12;5.38;;;4.03;;
62654;SDS011;48717;55.556;37.816;2022-08-19T03:31:40;9.15;;;4.80;;
62654;SDS011;48717;55.556;37.816;2022-08-19T03:34:20;13.88;;;4.72;;
62654;SDS011;48717;55.556;37.816;2022-08-19T03:39:27;6.72;;;3.83;;
62654;SDS011;48717;55.556;37.816;2022-08-19T03:41:54;12.38;;;4.60;;
62654;SDS011;48717;55.556;37.816;2022-08-19T03:44:47;10.98;;;4.30;;
62654;SDS011;48717;55.556;37.816;2022-08-19T03:47:14;9.60;;;5.28;;
62654;SDS011;48717;55.556;37.816;2022-08-19T03:49:43;9.05;;;6.88;;
62654;SDS011;48717;55.556;37.816;2022-08-19T03:52:11;10.73;;;6.03;;
62654;SDS011;48717;55.556;37.816;2022-08-19T03:54:38;9.68;;;5.18;;
62654;SDS011;48717;55.556;37.816;2022-08-19T03:57:06;10.00;;;5.97;;
62654;SDS011;48717;55.556;37.816;2022-08-19T03:59:34;12.20;;;6.85;;
62654;SDS011;48717;55.556;37.816;2022-08-19T04:02:06;20.55;;;10.40;;
62654;SDS011;48717;55.556;37.816;2022-08-19T04:04:39;12.13;;;6.88;;
62654;SDS011;48717;55.556;37.816;2022-08-19T04:07:08;11.52;;;5.90;;
62654;SDS011;48717;55.556;37.816;2022-08-19T04:09:36;12.18;;;5.45;;
62654;SDS011;48717;55.556;37.816;2022-08-19T04:14:33;7.57;;;4.90;;
62654;SDS011;48717;55.556;37.816;2022-08-19T04:17:02;13.02;;;6.25;;
62654;SDS011;48717;55.556;37.816;2022-08-19T04:19:34;14.25;;;5.25;;
62654;SDS011;48717;55.556;37.816;2022-08-19T04:22:02;8.63;;;4.50;;
62654;SDS011;48717;55.556;37.816;2022-08-19T04:24:30;8.20;;;4.32;;
62654;SDS011;48717;55.556;37.816;2022-08-19T04:27:01;9.20;;;4.60;;
62654;SDS011;48717;55.556;37.816;2022-08-19T04:29:29;15.63;;;6.50;;
62654;SDS011;48717;55.556;37.816;2022-08-19T04:31:58;10.63;;;4.82;;
62654;SDS011;48717;55.556;37.816;2022-08-19T04:34:35;8.15;;;4.85;;
62654;SDS011;48717;55.556;37.816;2022-08-19T04:37:23;12.63;;;6.18;;
62654;SDS011;48717;55.556;37.816;2022-08-19T04:40:02;16.35;;;7.18;;
62654;SDS011;48717;55.556;37.816;2022-08-19T04:42:50;8.32;;;4.47;;
62654;SDS011;48717;55.556;37.816;2022-08-19T04:45:17;10.90;;;4.80;;
62654;SDS011;48717;55.556;37.816;2022-08-19T04:47:48;8.02;;;4.57;;
62654;SDS011;48717;55.556;37.816;2022-08-19T04:50:25;10.65;;;4.97;;
62654;SDS011;48717;55.556;37.816;2022-08-19T04:52:55;14.93;;;4.93;;
62654;SDS011;48717;55.556;37.816;2022-08-19T04:55:23;13.45;;;7.55;;
62654;SDS011;48717;55.556;37.816;2022-08-19T04:57:53;9.63;;;6.37;;
62654;SDS011;48717;55.556;37.816;2022-08-19T05:00:21;12.05;;;4.72;;
62654;SDS011;48717;55.556;37.816;2022-08-19T05:02:49;17.23;;;10.07;;
62654;SDS011;48717;55.556;37.816;2022-08-19T05:05:16;17.90;;;9.63;;
62654;SDS011;48717;55.556;37.816;2022-08-19T05:07:46;9.48;;;4.90;;
62654;SDS011;48717;55.556;37.816;2022-08-19T05:12:46;29.05;;;7.55;;
62654;SDS011;48717;55.556;37.816;2022-08-19T05:15:18;9.75;;;4.65;;
62654;SDS011;48717;55.556;37.816;2022-08-19T05:17:49;6.90;;;3.90;;
62654;SDS011;48717;55.556;37.816;2022-08-19T05:20:56;7.90;;;3.80;;
62654;SDS011;48717;55.556;37.816;2022-08-19T05:23:44;11.20;;;4.63;;
62654;SDS011;48717;55.556;37.816;2022-08-19T05:26:11;9.57;;;4.50;;
62654;SDS011;48717;55.556;37.816;2022-08-19T05:28:38;10.73;;;4.13;;
62654;SDS011;48717;55.556;37.816;2022-08-19T05:31:06;8.30;;;4.10;;
62654;SDS011;48717;55.556;37.816;2022-08-19T05:33:34;6.43;;;3.95;;
62654;SDS011;48717;55.556;37.816;2022-08-19T05:36:03;6.68;;;4.40;;
62654;SDS011;48717;55.556;37.816;2022-08-19T05:38:31;12.23;;;4.50;;
62654;SDS011;48717;55.556;37.816;2022-08-19T05:40:58;7.38;;;4.20;;
62654;SDS011;48717;55.556;37.816;2022-08-19T05:43:25;14.77;;;4.65;;
62654;SDS011;48717;55.556;37.816;2022-08-19T05:45:52;10.43;;;4.40;;
62654;SDS011;48717;55.556;37.816;2022-08-19T05:48:19;9.68;;;3.80;;
62654;SDS011;48717;55.556;37.816;2022-08-19T05:50:47;4.90;;;3.92;;
62654;SDS011;48717;55.556;37.816;2022-08-19T05:55:44;9.05;;;4.63;;
62654;SDS011;48717;55.556;37.816;2022-08-19T05:58:11;13.32;;;5.07;;
62654;SDS011;48717;55.556;37.816;2022-08-19T06:00:39;8.98;;;4.70;;
62654;SDS011;48717;55.556;37.816;2022-08-19T06:03:10;10.85;;;5.28;;
62654;SDS011;48717;55.556;37.816;2022-08-19T06:05:39;11.77;;;4.80;;
62654;SDS011;48717;55.556;37.816;2022-08-19T06:08:18;12.07;;;5.40;;
62654;SDS011;48717;55.556;37.816;2022-08-19T06:10:46;14.25;;;5.25;;
62654;SDS011;48717;55.556;37.816;2022-08-19T06:13:13;9.73;;;4.93;;
62654;SDS011;48717;55.556;37.816;2022-08-19T06:15:41;8.73;;;4.88;;
62654;SDS011;48717;55.556;37.816;2022-08-19T06:18:10;11.93;;;5.32;;
62654;SDS011;48717;55.556;37.816;2022-08-19T06:20:38;8.45;;;4.97;;
62654;SDS011;48717;55.556;37.816;2022-08-19T06:23:22;6.47;;;5.03;;
62654;SDS011;48717;55.556;37.816;2022-08-19T06:25:50;9.60;;;5.10;;
62654;SDS011;48717;55.556;37.816;2022-08-19T06:28:17;9.52;;;5.20;;
62654;SDS011;48717;55.556;37.816;2022-08-19T06:30:44;20.30;;;5.57;;
62654;SDS011;48717;55.556;37.816;2022-08-19T06:33:11;10.57;;;5.60;;
62654;SDS011;48717;55.556;37.816;2022-08-19T06:35:39;10.55;;;5.63;;
62654;SDS011;48717;55.556;37.816;2022-08-19T06:38:08;18.30;;;6.00;;
62654;SDS011;48717;55.556;37.816;2022-08-19T06:40:36;12.50;;;5.82;;
62654;SDS011;48717;55.556;37.816;2022-08-19T06:43:04;10.68;;;5.20;;
62654;SDS011;48717;55.556;37.816;2022-08-19T06:45:36;12.25;;;5.20;;
62654;SDS011;48717;55.556;37.816;2022-08-19T06:48:05;13.00;;;5.18;;
62654;SDS011;48717;55.556;37.816;2022-08-19T06:50:33;10.40;;;4.95;;
62654;SDS011;48717;55.556;37.816;2022-08-19T06:53:05;10.13;;;4.95;;
62654;SDS011;48717;55.556;37.816;2022-08-19T06:55:32;8.95;;;4.93;;
62654;SDS011;48717;55.556;37.816;2022-08-19T06:58:02;9.00;;;5.55;;
62654;SDS011;48717;55.556;37.816;2022-08-19T07:00:32;13.63;;;5.80;;
62654;SDS011;48717;55.556;37.816;2022-08-19T07:03:00;8.02;;;4.82;;
62654;SDS011;48717;55.556;37.816;2022-08-19T07:05:37;8.27;;;4.22;;
62654;SDS011;48717;55.556;37.816;2022-08-19T07:08:11;14.07;;;4.80;;
62654;SDS011;48717;55.556;37.816;2022-08-19T07:10:42;10.60;;;5.10;;
62654;SDS011;48717;55.556;37.816;2022-08-19T07:13:11;13.52;;;5.00;;
62654;SDS011;48717;55.556;37.816;2022-08-19T07:15:38;6.45;;;4.75;;
62654;SDS011;48717;55.556;37.816;2022-08-19T07:18:05;9.23;;;4.82;;
62654;SDS011;48717;55.556;37.816;2022-08-19T07:20:37;8.20;;;4.00;;
62654;SDS011;48717;55.556;37.816;2022-08-19T07:23:07;6.55;;;4.47;;
62654;SDS011;48717;55.556;37.816;2022-08-19T07:25:36;9.93;;;4.35;;
62654;SDS011;48717;55.556;37.816;2022-08-19T07:28:06;7.40;;;4.47;;
62654;SDS011;48717;55.556;37.816;2022-08-19T07:30:49;6.72;;;4.05;;
62654;SDS011;48717;55.556;37.816;2022-08-19T07:33:18;9.00;;;4.03;;
62654;SDS011;48717;55.556;37.816;2022-08-19T07:35:45;13.57;;;4.85;;
62654;SDS011;48717;55.556;37.816;2022-08-19T07:38:12;10.50;;;4.57;;
62654;SDS011;48717;55.556;37.816;2022-08-19T07:40:41;13.57;;;4.63;;
62654;SDS011;48717;55.556;37.816;2022-08-19T07:43:09;10.82;;;4.47;;
62654;SDS011;48717;55.556;37.816;2022-08-19T07:45:42;7.75;;;4.32;;
62654;SDS011;48717;55.556;37.816;2022-08-19T07:48:09;17.65;;;4.32;;
62654;SDS011;48717;55.556;37.816;2022-08-19T07:50:37;9.90;;;3.78;;
62654;SDS011;48717;55.556;37.816;2022-08-19T07:53:04;11.48;;;3.80;;
62654;SDS011;48717;55.556;37.816;2022-08-19T07:55:31;8.13;;;3.90;;
62654;SDS011;48717;55.556;37.816;2022-08-19T07:58:10;9.82;;;4.40;;
62654;SDS011;48717;55.556;37.816;2022-08-19T08:03:05;9.52;;;4.03;;
62654;SDS011;48717;55.556;37.816;2022-08-19T08:05:32;11.90;;;3.85;;
62654;SDS011;48717;55.556;37.816;2022-08-19T08:08:18;15.40;;;4.20;;
62654;SDS011;48717;55.556;37.816;2022-08-19T08:11:10;13.23;;;4.20;;
62654;SDS011;48717;55.556;37.816;2022-08-19T08:13:41;8.80;;;3.72;;
62654;SDS011;48717;55.556;37.816;2022-08-19T08:16:09;12.63;;;3.85;;
62654;SDS011;48717;55.556;37.816;2022-08-19T08:18:40;8.18;;;4.13;;
62654;SDS011;48717;55.556;37.816;2022-08-19T08:21:16;8.25;;;3.70;;
62654;SDS011;48717;55.556;37.816;2022-08-19T08:23:43;6.22;;;3.53;;
62654;SDS011;48717;55.556;37.816;2022-08-19T08:26:11;12.45;;;4.43;;
62654;SDS011;48717;55.556;37.816;2022-08-19T08:28:41;8.35;;;4.10;;
62654;SDS011;48717;55.556;37.816;2022-08-19T08:31:13;8.90;;;4.22;;
62654;SDS011;48717;55.556;37.816;2022-08-19T08:33:41;17.73;;;4.60;;
62654;SDS011;48717;55.556;37.816;2022-08-19T08:36:09;11.43;;;3.75;;
62654;SDS011;48717;55.556;37.816;2022-08-19T08:38:37;8.45;;;3.60;;
62654;SDS011;48717;55.556;37.816;2022-08-19T08:43:55;11.23;;;3.97;;
62654;SDS011;48717;55.556;37.816;2022-08-19T08:46:39;14.93;;;3.93;;
62654;SDS011;48717;55.556;37.816;2022-08-19T08:54:35;32.40;;;4.45;;
62654;SDS011;48717;55.556;37.816;2022-08-19T08:57:30;15.43;;;4.10;;
62654;SDS011;48717;55.556;37.816;2022-08-19T09:00:10;7.63;;;3.30;;
62654;SDS011;48717;55.556;37.816;2022-08-19T09:02:43;10.88;;;3.42;;
62654;SDS011;48717;55.556;37.816;2022-08-19T09:05:18;9.60;;;3.50;;
62654;SDS011;48717;55.556;37.816;2022-08-19T09:08:06;7.53;;;3.30;;
62654;SDS011;48717;55.556;37.816;2022-08-19T09:10:40;9.18;;;3.20;;
62654;SDS011;48717;55.556;37.816;2022-08-19T09:15:46;10.73;;;4.28;;
62654;SDS011;48717;55.556;37.816;2022-08-19T09:18:19;6.10;;;3.25;;
62654;SDS011;48717;55.556;37.816;2022-08-19T09:20:46;10.43;;;4.00;;
62654;SDS011;48717;55.556;37.816;2022-08-19T09:23:14;12.00;;;3.28;;
62654;SDS011;48717;55.556;37.816;2022-08-19T09:25:42;14.00;;;3.53;;
62654;SDS011;48717;55.556;37.816;2022-08-19T09:28:09;13.13;;;3.67;;
62654;SDS011;48717;55.556;37.816;2022-08-19T09:30:47;12.38;;;3.63;;
62654;SDS011;48717;55.556;37.816;2022-08-19T09:33:18;9.95;;;3.75;;
62654;SDS011;48717;55.556;37.816;2022-08-19T09:35:46;13.15;;;3.50;;
62654;SDS011;48717;55.556;37.816;2022-08-19T09:38:20;14.63;;;3.08;;
62654;SDS011;48717;55.556;37.816;2022-08-19T09:40:48;10.50;;;3.28;;
62654;SDS011;48717;55.556;37.816;2022-08-19T09:43:17;7.60;;;3.40;;
62654;SDS011;48717;55.556;37.816;2022-08-19T09:46:00;6.40;;;3.50;;
62654;SDS011;48717;55.556;37.816;2022-08-19T09:48:28;9.35;;;3.35;;
62654;SDS011;48717;55.556;37.816;2022-08-19T09:51:01;6.95;;;3.17;;
62654;SDS011;48717;55.556;37.816;2022-08-19T09:53:37;5.20;;;3.05;;
62654;SDS011;48717;55.556;37.816;2022-08-19T09:56:05;8.57;;;2.88;;
62654;SDS011;48717;55.556;37.816;2022-08-19T09:58:34;13.60;;;3.20;;
62654;SDS011;48717;55.556;37.816;2022-08-19T10:01:03;11.73;;;3.40;;
62654;SDS011;48717;55.556;37.816;2022-08-19T10:03:32;11.13;;;3.38;;
62654;SDS011;48717;55.556;37.816;2022-08-19T10:06:01;10.70;;;3.22;;
62654;SDS011;48717;55.556;37.816;2022-08-19T10:11:16;9.23;;;3.13;;
62654;SDS011;48717;55.556;37.816;2022-08-19T10:14:02;11.90;;;3.08;;
62654;SDS011;48717;55.556;37.816;2022-08-19T10:16:32;10.77;;;2.80;;
62654;SDS011;48717;55.556;37.816;2022-08-19T10:19:05;9.32;;;3.30;;
62654;SDS011;48717;55.556;37.816;2022-08-19T10:21:33;15.00;;;3.40;;
62654;SDS011;48717;55.556;37.816;2022-08-19T10:24:02;6.63;;;3.35;;
62654;SDS011;48717;55.556;37.816;2022-08-19T10:26:35;9.65;;;3.10;;
62654;SDS011;48717;55.556;37.816;2022-08-19T10:29:08;8.90;;;3.17;;
62654;SDS011;48717;55.556;37.816;2022-08-19T10:31:38;7.70;;;2.90;;
62654;SDS011;48717;55.556;37.816;2022-08-19T10:34:30;10.98;;;2.92;;
62654;SDS011;48717;55.556;37.816;2022-08-19T10:36:57;7.90;;;2.92;;
62654;SDS011;48717;55.556;37.816;2022-08-19T10:39:31;7.78;;;2.90;;
62654;SDS011;48717;55.556;37.816;2022-08-19T10:42:09;6.75;;;3.08;;
62654;SDS011;48717;55.556;37.816;2022-08-19T10:44:40;21.90;;;3.70;;
62654;SDS011;48717;55.556;37.816;2022-08-19T10:47:08;7.35;;;3.00;;
62654;SDS011;48717;55.556;37.816;2022-08-19T10:50:14;6.10;;;3.08;;
62654;SDS011;48717;55.556;37.816;2022-08-19T10:53:06;5.53;;;3.22;;
62654;SDS011;48717;55.556;37.816;2022-08-19T10:55:35;6.32;;;3.40;;
62654;SDS011;48717;55.556;37.816;2022-08-19T10:58:21;15.45;;;4.05;;
62654;SDS011;48717;55.556;37.816;2022-08-19T11:00:54;6.05;;;3.63;;
62654;SDS011;48717;55.556;37.816;2022-08-19T11:03:23;10.82;;;4.00;;
62654;SDS011;48717;55.556;37.816;2022-08-19T11:06:02;9.93;;;3.67;;
62654;SDS011;48717;55.556;37.816;2022-08-19T11:08:31;7.25;;;3.30;;
62654;SDS011;48717;55.556;37.816;2022-08-19T11:10:59;12.93;;;4.00;;
62654;SDS011;48717;55.556;37.816;2022-08-19T11:13:36;12.32;;;3.67;;
62654;SDS011;48717;55.556;37.816;2022-08-19T11:16:07;8.38;;;3.33;;
62654;SDS011;48717;55.556;37.816;2022-08-19T11:18:42;7.50;;;3.28;;
62654;SDS011;48717;55.556;37.816;2022-08-19T11:21:58;11.90;;;3.72;;
62654;SDS011;48717;55.556;37.816;2022-08-19T11:24:29;7.35;;;2.90;;
62654;SDS011;48717;55.556;37.816;2022-08-19T11:27:03;10.60;;;3.03;;
62654;SDS011;48717;55.556;37.816;2022-08-19T11:29:33;7.15;;;3.30;;
62654;SDS011;48717;55.556;37.816;2022-08-19T11:32:09;7.85;;;3.63;;
62654;SDS011;48717;55.556;37.816;2022-08-19T11:34:38;14.68;;;3.40;;
62654;SDS011;48717;55.556;37.816;2022-08-19T11:37:05;10.13;;;3.65;;
62654;SDS011;48717;55.556;37.816;2022-08-19T11:39:34;7.60;;;3.08;;
62654;SDS011;48717;55.556;37.816;2022-08-19T11:42:04;6.75;;;3.30;;
62654;SDS011;48717;55.556;37.816;2022-08-19T11:44:46;8.48;;;3.33;;
62654;SDS011;48717;55.556;37.816;2022-08-19T11:47:14;5.45;;;3.10;;
62654;SDS011;48717;55.556;37.816;2022-08-19T11:49:41;4.93;;;3.20;;
62654;SDS011;48717;55.556;37.816;2022-08-19T11:52:09;11.35;;;3.25;;
62654;SDS011;48717;55.556;37.816;2022-08-19T11:54:40;14.40;;;3.83;;
62654;SDS011;48717;55.556;37.816;2022-08-19T11:57:09;9.70;;;3.22;;
62654;SDS011;48717;55.556;37.816;2022-08-19T11:59:49;7.13;;;3.15;;
62654;SDS011;48717;55.556;37.816;2022-08-19T12:02:20;6.45;;;3.10;;
62654;SDS011;48717;55.556;37.816;2022-08-19T12:04:48;10.98;;;3.30;;
62654;SDS011;48717;55.556;37.816;2022-08-19T12:07:16;10.00;;;3.63;;
62654;SDS011;48717;55.556;37.816;2022-08-19T12:09:47;7.03;;;3.20;;
62654;SDS011;48717;55.556;37.816;2022-08-19T12:12:15;10.45;;;3.35;;
62654;SDS011;48717;55.556;37.816;2022-08-19T12:14:45;9.05;;;3.35;;
62654;SDS011;48717;55.556;37.816;2022-08-19T12:17:13;17.95;;;3.95;;
62654;SDS011;48717;55.556;37.816;2022-08-19T12:19:40;12.45;;;3.58;;
62654;SDS011;48717;55.556;37.816;2022-08-19T12:22:08;10.82;;;3.03;;
62654;SDS011;48717;55.556;37.816;2022-08-19T12:24:35;9.55;;;3.53;;
62654;SDS011;48717;55.556;37.816;2022-08-19T12:27:02;11.07;;;3.45;;
62654;SDS011;48717;55.556;37.816;2022-08-19T12:29:29;15.68;;;3.53;;
62654;SDS011;48717;55.556;37.816;2022-08-19T12:31:57;15.80;;;3.65;;
62654;SDS011;48717;55.556;37.816;2022-08-19T12:34:31;8.32;;;3.60;;
62654;SDS011;48717;55.556;37.816;2022-08-19T12:39:27;14.63;;;3.25;;
62654;SDS011;48717;55.556;37.816;2022-08-19T12:41:54;7.25;;;3.65;;
62654;SDS011;48717;55.556;37.816;2022-08-19T12:44:22;12.27;;;3.97;;
62654;SDS011;48717;55.556;37.816;2022-08-19T12:46:55;6.47;;;3.63;;
62654;SDS011;48717;55.556;37.816;2022-08-19T12:49:23;11.25;;;3.15;;
62654;SDS011;48717;55.556;37.816;2022-08-19T12:52:11;4.80;;;3.22;;
62654;SDS011;48717;55.556;37.816;2022-08-19T12:54:48;11.15;;;3.30;;
62654;SDS011;48717;55.556;37.816;2022-08-19T12:57:21;8.57;;;3.55;;
62654;SDS011;48717;55.556;37.816;2022-08-19T13:00:04;5.40;;;3.38;;
62654;SDS011;48717;55.556;37.816;2022-08-19T13:02:37;21.02;;;4.53;;
62654;SDS011;48717;55.556;37.816;2022-08-19T13:05:08;18.88;;;3.72;;
62654;SDS011;48717;55.556;37.816;2022-08-19T13:07:38;13.18;;;4.53;;
62654;SDS011;48717;55.556;37.816;2022-08-19T13:10:07;10.52;;;4.30;;
62654;SDS011;48717;55.556;37.816;2022-08-19T13:12:36;5.53;;;4.35;;
62654;SDS011;48717;55.556;37.816;2022-08-19T13:15:03;9.50;;;4.60;;
62654;SDS011;48717;55.556;37.816;2022-08-19T13:17:37;9.13;;;5.00;;
62654;SDS011;48717;55.556;37.816;2022-08-19T13:20:06;16.60;;;10.98;;
62654;SDS011;48717;55.556;37.816;2022-08-19T13:22:37;23.20;;;10.85;;
62654;SDS011;48717;55.556;37.816;2022-08-19T13:25:05;13.63;;;11.23;;
62654;SDS011;48717;55.556;37.816;2022-08-19T13:27:33;14.60;;;10.38;;
62654;SDS011;48717;55.556;37.816;2022-08-19T13:30:00;15.63;;;10.43;;
62654;SDS011;48717;55.556;37.816;2022-08-19T13:32:46;19.25;;;12.63;;
62654;SDS011;48717;55.556;37.816;2022-08-19T13:35:32;23.63;;;15.32;;
62654;SDS011;48717;55.556;37.816;2022-08-19T13:38:00;27.73;;;17.60;;
62654;SDS011;48717;55.556;37.816;2022-08-19T13:40:37;22.05;;;16.85;;
62654;SDS011;48717;55.556;37.816;2022-08-19T13:43:07;24.13;;;14.73;;
62654;SDS011;48717;55.556;37.816;2022-08-19T13:45:52;18.98;;;14.95;;
62654;SDS011;48717;55.556;37.816;2022-08-19T13:48:23;20.73;;;16.15;;
62654;SDS011;48717;55.556;37.816;2022-08-19T13:50:53;23.73;;;17.88;;
62654;SDS011;48717;55.556;37.816;2022-08-19T13:53:20;25.10;;;18.83;;
62654;SDS011;48717;55.556;37.816;2022-08-19T13:55:48;23.88;;;17.42;;
62654;SDS011;48717;55.556;37.816;2022-08-19T13:58:16;23.95;;;16.55;;
62654;SDS011;48717;55.556;37.816;2022-08-19T14:00:44;22.50;;;16.55;;
62654;SDS011;48717;55.556;37.816;2022-08-19T14:03:13;19.13;;;14.30;;
62654;SDS011;48717;55.556;37.816;2022-08-19T14:05:41;24.55;;;11.05;;
62654;SDS011;48717;55.556;37.816;2022-08-19T14:08:08;22.35;;;10.50;;
62654;SDS011;48717;55.556;37.816;2022-08-19T14:10:35;20.40;;;10.18;;
62654;SDS011;48717;55.556;37.816;2022-08-19T14:13:03;21.92;;;12.10;;
62654;SDS011;48717;55.556;37.816;2022-08-19T14:15:31;15.77;;;11.60;;
62654;SDS011;48717;55.556;37.816;2022-08-19T14:17:58;14.73;;;10.95;;
62654;SDS011;48717;55.556;37.816;2022-08-19T14:20:26;17.02;;;10.18;;
62654;SDS011;48717;55.556;37.816;2022-08-19T14:22:53;13.57;;;9.57;;
62654;SDS011;48717;55.556;37.816;2022-08-19T14:25:22;18.48;;;10.65;;
62654;SDS011;48717;55.556;37.816;2022-08-19T14:27:52;22.67;;;10.43;;
62654;SDS011;48717;55.556;37.816;2022-08-19T14:30:24;22.27;;;10.32;;
62654;SDS011;48717;55.556;37.816;2022-08-19T14:32:55;14.32;;;8.95;;
62654;SDS011;48717;55.556;37.816;2022-08-19T14:35:23;16.77;;;8.97;;
62654;SDS011;48717;55.556;37.816;2022-08-19T14:37:51;10.85;;;6.60;;
62654;SDS011;48717;55.556;37.816;2022-08-19T14:40:23;9.90;;;6.95;;
62654;SDS011;48717;55.556;37.816;2022-08-19T14:42:52;17.10;;;7.00;;
62654;SDS011;48717;55.556;37.816;2022-08-19T14:45:27;10.07;;;6.85;;
62654;SDS011;48717;55.556;37.816;2022-08-19T14:47:55;12.68;;;7.70;;
62654;SDS011;48717;55.556;37.816;2022-08-19T14:50:22;13.52;;;6.85;;
62654;SDS011;48717;55.556;37.816;2022-08-19T14:52:49;13.57;;;7.07;;
62654;SDS011;48717;55.556;37.816;2022-08-19T14:55:18;12.33;;;7.00;;
62654;SDS011;48717;55.556;37.816;2022-08-19T14:57:45;11.88;;;6.18;;
62654;SDS011;48717;55.556;37.816;2022-08-19T15:00:13;14.00;;;6.22;;
62654;SDS011;48717;55.556;37.816;2022-08-19T15:02:41;8.73;;;4.82;;
62654;SDS011;48717;55.556;37.816;2022-08-19T15:05:11;13.18;;;5.45;;
62654;SDS011;48717;55.556;37.816;2022-08-19T15:07:39;8.48;;;4.80;;
62654;SDS011;48717;55.556;37.816;2022-08-19T15:10:07;8.07;;;4.18;;
62654;SDS011;48717;55.556;37.816;2022-08-19T15:12:36;9.45;;;4.93;;
62654;SDS011;48717;55.556;37.816;2022-08-19T15:15:13;13.63;;;5.63;;
62654;SDS011;48717;55.556;37.816;2022-08-19T15:17:41;10.52;;;7.00;;
62654;SDS011;48717;55.556;37.816;2022-08-19T15:20:20;8.35;;;5.10;;
62654;SDS011;48717;55.556;37.816;2022-08-19T15:22:49;10.00;;;5.63;;
62654;SDS011;48717;55.556;37.816;2022-08-19T15:25:17;12.07;;;4.75;;
62654;SDS011;48717;55.556;37.816;2022-08-19T15:27:45;9.38;;;4.40;;